Vue régionale

METAR et TAF

Mercredi 24 janvier 2018 à 06h35

Visibilités horizontales observées à différents aéroports. Les observations (METAR) et prévisions aéronautiques (TAF) complètes sont disponibles en cliquant sur l’icône correspondante.

  • Luxemburg (ELLX)

    Taf: TAF ELLX 240500Z NIL=

    Metar: METAR ELLX 240520Z 20009KT 1500 R24/P2000N DZRA BR BKN002 BKN003 08/08 Q1021 NOSIG=

  • Spangdahlem (ETAD)

    Taf: TAF ETAD 240310Z 2403/2509 22012G20KT 8000 -SHRA BKN002 610602 QNH3000INS TEMPO 2403/2415 BKN003 BECMG 2415/2416 22015G25KT 8000 -SHRA BKN006 620602 QNH2994INS TEMPO 2416/2502 22020G35KT BECMG 2503/2504 22012G20KT 5000 -SHRA BKN006 620602 QNH2991INS BECMG 2507/2508 25009KT 6000 -SHRA BKN006 QNH2995INS TX11/2413Z TN07/2403Z LAST NO AMDS AFT 2403=

    Metar: METAR ETAD 240456Z AUTO 22013KT 6000 BR OVC002 08/08 A3014 RMK AO2 SLP205 T00780075 TSNO $=

  • Metz/Nancy (LFJL)

    Taf: TAF LFJL 240501Z 2406/2506 20013KT 9999 OVC013 PROB40 TEMPO 2406/2410 4500 -RADZ OVC008 BECMG 2410/2413 BKN020 TEMPO 2422/2504 21015G25KT BECMG 2504/2506 RA=

    Metar: METAR LFJL 240500Z AUTO 19012KT 9999 OVC012 09/08 Q1023 TEMPO 4500 -RADZ OVC007=

  • Saarbrücken/Intl (EDDR)

    Taf: TAF EDDR 240500Z 2406/2506 23010KT 9999 OVC010 TEMPO 2406/2410 4000 -DZRA BKN004 TEMPO 2410/2412 BKN008 TEMPO 2410/2414 21015G25KT BECMG 2412/2414 SCT012 TEMPO 2422/2506 23015G25KT TEMPO 2503/2506 4000 RADZ BKN006=

    Metar: METAR EDDR 240520Z 22012KT 9999 -DZ BKN008 08/06 Q1023 NOSIG=

  • Hahn (EDFH)

    Taf: TAF EDFH 240500Z 2406/2506 23013KT 9999 BKN008 TEMPO 2406/2410 23015G25KT 2500 DZRA BR BKN003 BECMG 2410/2412 22015G25KT BECMG 2412/2414 SCT008 BKN015 TEMPO 2414/2419 21012KT BECMG 2422/2424 23020G30KT BECMG 2500/2502 BKN010 TEMPO 2502/2506 2500 RADZ BKN004=

    Metar: METAR EDFH 240520Z 22010KT 190V250 9999 -DZ BKN005 08/07 Q1021=

  • Ramstein (ETAR)

    Taf: TAF AMD ETAR 240352Z 2403/2508 22009KT 8000 -SHRA BKN007 620204 QNH3004INS TEMPO 2403/2415 22012G20KT BECMG 2414/2415 21009KT 9999 NSW BKN020 QNH3000INS BECMG 2422/2423 22012KT 8000 -SHRA BKN020 610204 QNH2997INS BECMG 2506/2507 22012KT 8000 -SHRA BKN015 610204 QNH2997INS TX11/2414Z TN06/2403Z=

    Metar: nil

  • Nancy/Ochey (LFSO)

    Taf: TAF LFSO 240200Z NIL=

    Metar: METAR LFSO 240500Z AUTO 20016KT 9999 OVC017 09/07 Q1024=

  • Liège Bierset (EBLG)

    Taf: TAF EBLG 240500Z 2406/2512 21010KT 9999 SCT006 BKN010 TEMPO 2406/2411 3000 DZ BKN006 BECMG 2411/2413 21015G27KT SCT012 SCT020 TEMPO 2413/2418 21023G40KT BECMG 2421/2423 24013KT TEMPO 2423/2503 4000 SHRA BKN008 BKN014=

    Metar: METAR EBLG 240520Z 20014KT 9999 BKN008 BKN012 10/09 Q1018 NOSIG=

  • Saint-Dizier (LFSI)

    Taf: TAF LFSI 240200Z 2403/2503 20010KT 9999 BKN010 OVC025 TEMPO 2403/2408 2000 DZRA BKN005 OVC015 BECMG 2410/2413 BKN020=

    Metar: METAR LFSI 240500Z AUTO 20008KT 9999 OVC011 11/09 Q1023=

  • Maastricht/Zuid Limburg (EHBK)

    Taf: TAF EHBK 240504Z 2406/2512 21015KT 9999 BKN017 PROB30 TEMPO 2406/2409 6000 -DZ BKN012 BECMG 2408/2411 21021G33KT TEMPO 2422/2505 4000 RA SHRA BKN008 SCT015TCU BECMG 2423/2502 25011KT BECMG 2502/2505 22010KT=

    Metar: METAR EHBK 240525Z AUTO 20017KT 170V230 9999 FEW011 OVC033 11/09 Q1017 NOSIG=

  • Köln/Köln-Bonn (EDDK)

    Taf: TAF EDDK 240500Z 2406/2512 18011KT 9999 BKN030 PROB30 TEMPO 2413/2418 18015G25KT TEMPO 2421/2503 RA BECMG 2503/2506 21006KT=

    Metar: METAR EDDK 240520Z 18009KT 9999 SCT029 BKN065 10/08 Q1019 NOSIG=

  • Charleroi (EBCI)

    Taf: TAF EBCI 240500Z 2406/2512 21012KT 9999 SCT004 BKN007 TEMPO 2400/2411 3000 DZ BKN004 BECMG 2410/2412 21015G27KT BECMG 2411/2413 BKN017 BKN040 TEMPO 2412/2418 21023G40KT BECMG 2421/2423 23013KT TEMPO 2422/2502 4000 SHRA BKN007 BKN014 PROB40 2502/2507 BKN002=

    Metar: METAR EBCI 240520Z 21013KT 4000 -DZRA BR BKN006 BKN009 11/10 Q1018 TEMPO 2500 -DZRA BR BKN004=

  • Wiesbaden (ETOU)

    Taf: TAF ETOU 240314Z 2403/2509 22009KT 9999 OVC014 620602 QNH3012INS TEMPO 2403/2411 OVC015 BECMG 2410/2411 20012G20KT 9999 BKN015 610602 QNH3000INS BECMG 2503/2504 21009KT 9999 OVC015 610602 QNH2997INS BECMG 2506/2507 21009KT 6000 -SHRA OVC010 610602 QNH2997INS TX11/2413Z TN07/2403Z=

    Metar: METAR ETOU 240456Z AUTO 21005KT 9999 OVC013 09/07 A3019 RMK AO2 SLP229 T00860066 $=

  • Karlsruhe/Baden-Baden (EDSB)

    Taf: TAF EDSB 240500Z 2406/2506 21012KT 9999 BKN040=

    Metar: METAR EDSB 240520Z 21011KT 9999 BKN046 09/06 Q1024=

  • Chalons/Vatry (LFOK)

    Taf: TAF LFOK 240500Z 2406/2506 20013KT 9999 OVC012 TEMPO 2406/2410 3000 DZ OVC006 BECMG 2410/2413 SCT020 TEMPO 2422/2504 21017G27KT TEMPO 2501/2506 3000 RA OVC012=

    Metar: METAR LFOK 240500Z AUTO 19016KT 5000 BR OVC004 10/09 Q1022 TEMPO DZ OVC006=

  • Brüssel (EBBR)

    Taf: TAF EBBR 240500Z 2406/2512 21012KT 9999 BKN020 BECMG 2408/2410 20017G30KT TEMPO 2412/2419 20025G40KT BECMG 2422/2424 23012KT TEMPO 2422/2501 4000 SHRA BKN014=

    Metar: METAR EBBR 240520Z 21016KT 9999 FEW016 BKN023 BKN035 12/10 Q1017 NOSIG=

  • Düsseldorf (EDDL)

    Taf: TAF EDDL 240500Z 2406/2512 20013KT 9999 BKN020 BECMG 2406/2409 20015G25KT TEMPO 2411/2420 20020G30KT TEMPO 2420/2501 RA PROB30 TEMPO 2503/2506 BKN012=

    Metar: METAR EDDL 240520Z 19013KT 9999 FEW022 BKN028 12/09 Q1017 NOSIG=

  • Luxeuil (LFSX)

    Taf: TAF LFSX 240200Z NIL=

    Metar: METAR LFSX 240500Z AUTO VRB03KT 9999 OVC010 08/07 Q1026=

  • Eindhoven (EHEH)

    Taf: TAF EHEH 232348Z 2400/2506 21012G22KT 9999 FEW008 BKN010 OVC013 TEMPO 2400/2408 4500 RADZ SCT004 OVC006 PROB40 TEMPO 2400/2404 3000 -DZ BR BKN002 OVC004 BECMG 2410/2413 20015G32KT 9999 BKN020 BECMG 2420/2423 23009KT TEMPO 2421/2501 4000 RA SHRA SCT007 OVC010 SCT018CB=

    Metar: METAR EHEH 240525Z AUTO 20011KT 170V230 9999 SCT010 OVC012 12/10 Q1016 GRN=

  • Niederrhein (EDLV)

    Taf: TAF EDLV 240500Z 2406/2506 20011KT 9999 BKN020 TEMPO 2406/2410 BKN012 BECMG 2408/2411 20015G25KT TEMPO 2410/2420 21020G30KT TEMPO 2420/2424 4500 RA PROB30 TEMPO 2503/2506 BKN008=

    Metar: METAR EDLV 240520Z 21011KT 9999 BKN013 12/12 Q1016=

  • Dortmund/Wickede (EDLW)

    Taf: TAF EDLW 240500Z NIL=

    Metar: METAR EDLW 240520Z 20013KT 9999 FEW011 OVC018 11/07 Q1017=

  • Stuttgart/Echterdingen (EDDS)

    Taf: TAF EDDS 240500Z 2406/2506 20010KT 9999 BKN030 TEMPO 2410/2414 23015G25KT=

    Metar: METAR EDDS 240520Z 18006KT CAVOK 06/03 Q1025 NOSIG=

  • Basel-Mühlhausen (LFSB)

    Taf: TAF LFSB 240500Z 2406/2506 15005KT 9999 BKN015 BKN020 BECMG 2407/2411 NSC=

    Metar: METAR LFSB 240500Z 16008KT 9999 BKN016 BKN019 06/04 Q1027 NOSIG=

  • Lille (LFQQ)

    Taf: TAF LFQQ 240500Z 2406/2512 20015G25KT 9999 BKN013 OVC030 TEMPO 2406/2409 3000 DZ OVC006 BECMG 2407/2409 20020G35KT BECMG 2410/2412 BKN025 TEMPO 2420/2424 3000 RA BKN013 BECMG 2421/2424 23012KT=

    Metar: METAR LFQQ 240500Z AUTO 19017KT 9999 BKN013 BKN020 OVC039 12/10 Q1016 TEMPO 3000 DZ OVC006 BECMG 23015G25KT=

  • Paris/Charles de Gaulle (LFPG)

    Taf: TAF LFPG 240500Z 2406/2512 20010KT 9999 BKN007 BECMG 2406/2408 20015G25KT BKN012 PROB40 TEMPO 2406/2408 4000 -DZ BKN004 BECMG 2409/2411 BKN020 BECMG 2419/2421 BKN012 TEMPO 2500/2503 2500 RA BECMG 2503/2505 24010KT BKN016 PROB40 TEMPO 2504/2512 -RA TX12/2413Z TN09/2506Z=

    Metar: METAR LFPG 240500Z 20014KT 9999 BKN006 BKN007 12/10 Q1020 NOSIG=

  • Paderborn/Lippstadt (EDLP)

    Taf: TAF EDLP 240500Z 2406/2506 21015G25KT 9999 BKN020 TEMPO 2410/2424 21020G30KT TEMPO 2422/2503 4000 RA BECMG 2503/2506 22010KT=

    Metar: METAR EDLP 240520Z 20013KT 9999 FEW012 SCT022 BKN035 09/08 Q1018=

  • Paris/Le Bourget (LFPB)

    Taf: TAF LFPB 240500Z 2406/2506 20010KT 9999 BKN008 BECMG 2406/2408 20015G25KT BKN012 PROB40 TEMPO 2406/2408 4000 -DZ BKN004 BECMG 2409/2411 BKN020 BECMG 2419/2421 BKN012 TEMPO 2500/2503 2500 RA BECMG 2503/2505 24010KT BKN016 PROB40 TEMPO 2504/2506 -RA=

    Metar: METAR LFPB 240500Z AUTO 20009KT 9999 OVC009 12/11 Q1021 TEMPO 3000 BR=

  • Rotterdam (EHRD)

    Taf: TAF EHRD 240509Z 2406/2512 20017KT 9999 SCT008 BKN012 TEMPO 2406/2408 5000 -DZ BR BKN008 BECMG 2407/2410 21024G37KT SCT012 BKN016 BECMG 2414/2417 7000 -RA TEMPO 2417/2419 4000 RA SHRA BKN010 SCT020CB BECMG 2417/2419 25012KT BKN030 BECMG 2419/2422 22012KT 9999 NSW FEW025 PROB30 TEMPO 2508/2512 6000 SHRA SCT020CB=

    Metar: METAR EHRD 240525Z AUTO 21016KT 180V240 9999 SCT007 BKN009 OVC010 12/11 Q1013 BECMG SCT008 BKN012=

  • Zürich/Kloten (LSZH)

    Taf: TAF LSZH 240225Z 2403/2509 VRB03KT 9999 FEW030 SCT045 BKN110 TX11/2413Z TN02/2406Z TN01/2506Z PROB30 2404/2409 3000 MIFG BECMG 2408/2411 CAVOK PROB40 2501/2509 3000 MIFG=

    Metar: METAR LSZH 240520Z 16007KT 9999 FEW018 BKN022 03/01 Q1027 NOSIG=

  • Oostende/Intl (EBOS)

    Taf: TAF EBOS 240500Z 2406/2512 21014KT 9999 SCT007 BKN012 BECMG 2406/2412 21016G27KT SCT012 BKN020 BECMG 2407/2409 20020G38KT TEMPO 2410/2414 20025G48KT BECMG 2415/2417 24018G30KT BECMG 2417/2419 23013KT TEMPO 2417/2422 23015G27KT 4000 RA=

    Metar: METAR EBOS 240520Z 20017KT 9999 SCT005 BKN007 BKN013 12/10 Q1014 TEMPO 20016G27KT SCT006 BKN012=

  • Paris/Orly (LFPO)

    Taf: TAF LFPO 240500Z 2406/2512 21010KT 9999 BKN008 TEMPO 2406/2409 4000 -RADZ BKN004 BECMG 2409/2411 21015G28KT BKN020 BECMG 2419/2421 BKN012 TEMPO 2421/2504 4000 RA BKN008 BECMG 2504/2506 22008KT PROB40 TEMPO 2504/2512 4000 -RA=

    Metar: METAR LFPO 240500Z 21010KT 9999 BKN007 12/11 Q1021 TEMPO BKN004=

  • Beauvais (LFOB)

    Taf: TAF LFOB 240500Z 2406/2506 20015G25KT 9999 OVC012 TEMPO 2406/2408 3000 DZ OVC006 BECMG 2408/2410 BKN016 TEMPO 2412/2422 20020G35KT TEMPO 2419/2422 3000 RA OVC012 BECMG 2422/2424 23012KT=

    Metar: METAR LFOB 240500Z AUTO 19015KT 9999 OVC007 12/11 Q1018 TEMPO 3000 DZ=

  • Münster/Intl (EDDG)

    Taf: TAF EDDG 240500Z 2406/2506 22013KT 9999 BKN020 TEMPO 2406/2410 BKN012 BECMG 2407/2410 20015G25KT TEMPO 2411/2421 20020G30KT PROB30 TEMPO 2418/2424 RA BECMG 2500/2503 22010KT=

    Metar: METAR EDDG 240520Z 21008KT 170V230 9999 -RA BKN010 11/10 Q1016 TEMPO BKN008=

  • Illesheim (ETIK)

    Taf: TAF ETIK 232201Z 2322/2504 21009KT 9999 BKN030 620609 QNH3025INS BECMG 2322/2323 21009KT 8000 -SHRA OVC030 620609 QNH3024INS BECMG 2402/2403 22009KT 9999 NSW BKN030 QNH3015INS BECMG 2409/2410 22009KT 9999 SCT015 BKN040 QNH3015INS BECMG 2415/2416 20009KT 8000 BR SCT040 QNH3011INS BECMG 2416/2417 19009KT 3200 BR SCT020 QNH3005INS TX12/2414Z TN03/2400Z=

    Metar: METAR ETIK 240456Z AUTO 21009KT 9999 OVC016 07/06 A3024 RMK AO2 SLP252 T00730061=

  • Duebendorf (LSMD)

    Taf: TAF LSMD 231625Z 2317/2423 VRB05KT 9999 BKN035 PROB30 TEMPO 2322/2403 4500 RA PROB30 2404/2409 3000 MIFG BECMG 2408/2411 CAVOK PROB30 2421/2423 2000 MIFG NSC=

    Metar: METAR LSMD 240450Z AUTO 11004KT 080V140 9999NDV FEW100 02/M00 Q1027 RMK=

  • Villacoublay (LFPV)

    Taf: TAF LFPV 240200Z 2403/2503 21010KT 9999 OVC006 TEMPO 2403/2409 4000 -DZRA OVC003 PROB30 TEMPO 2403/2408 0800 FG OVC000 BECMG 2408/2411 BKN016 BECMG 2411/2413 21015G25KT BECMG 2501/2503 23010KT TEMPO 2500/2503 5000 RA BKN008=

    Metar: METAR LFPV 240500Z AUTO 20011KT 170V240 9999 OVC006 11/10 Q1020 TEMPO 0800 FG OVC000=

  • Payerne (LSMP)

    Taf: TAF LSMP 231625Z 2317/2423 VRB03KT CAVOK PROB40 TEMPO 2403/2408 2000 BCFG=

    Metar: METAR LSMP 240450Z 00000KT 6000 NSC 00/M00 Q1028 RMK WHT=

  • Amsterdam/Schipol (EHAM)

    Taf: TAF EHAM 240509Z 2406/2512 20017KT 9999 SCT008 BKN012 PROB40 TEMPO 2406/2409 5000 -DZ BKN008 BECMG 2407/2410 21024G37KT SCT012 BKN016 BECMG 2414/2417 7000 -RA BECMG 2417/2419 25012KT BKN030 TEMPO 2417/2419 4000 RA SHRA BKN010 SCT020CB BECMG 2419/2422 22012KT 9999 NSW FEW025 PROB30 TEMPO 2508/2512 6000 SHRA SCT020CB=

    Metar: METAR EHAM 240525Z 20014KT 6000 -DZ BKN007 BKN010 11/11 Q1013 TEMPO 9999=

  • Emmen (LSME)

    Taf: TAF LSME 231625Z 2317/2423 VRB03KT 9999 BKN030 PROB30 TEMPO 2323/2403 4500 RA PROB30 2404/2409 3000 BCFG BECMG 2408/2411 CAVOK PROB30 2421/2423 3000 MIFG NSC=

    Metar: METAR LSME 240450Z AUTO 00000KT 4200NDV BR NCD 00/M00 Q1028 RMK=

  • Friedrichshafen (EDNY)

    Taf: TAF EDNY 240500Z 2406/2506 VRB03KT CAVOK PROB30 TEMPO 2422/2506 2000 BCFG=

    Metar: METAR EDNY 240520Z VRB03KT 9999 FEW035 03/03 Q1027=

  • Alpnach (LSMA)

    Taf: TAF LSMA 231625Z 2317/2423 VRB03KT 9999 SCT025 SCT070 PROB40 2320/2408 4000 BR PROB30 2403/2408 2000 BCFG BECMG 2407/2410 CAVOK PROB30 2421/2423 2000 MIFG NSC=

    Metar: METAR LSMA 240450Z AUTO VRB01KT 5000NDV NCD 01/01 Q1028 RMK=

  • Meiringen (LSMM)

    Taf: TAF LSMM 231625Z 2317/2423 VRB03KT 9999 FEW030 SCT120 PROB40 2402/2408 2000 BCFG BECMG 2407/2410 CAVOK PROB30 2421/2423 2000 MIFG NSC=

    Metar: METAR LSMM 240450Z 10003KT 070V150 CAVOK M01/M01 Q1027 RMK BLU=

  • Nürnberg (EDDN)

    Taf: TAF EDDN 240500Z 2406/2506 15006KT 9999 BKN030 PROB30 TEMPO 2406/2408 BKN014=

    Metar: METAR EDDN 240520Z 13006KT 9999 BKN016 05/03 Q1024 TEMPO BKN014=

  • Rouen (LFOP)

    Taf: TAF LFOP 240500Z 2406/2506 20015G25KT 9999 OVC014 TEMPO 2406/2408 3000 DZ OVC006 BECMG 2408/2411 BKN020 TEMPO 2408/2421 20020G35KT TEMPO 2418/2423 3000 RA BKN008 BECMG 2421/2423 23010KT=

    Metar: METAR LFOP 240500Z AUTO 19013KT 9999 OVC009 12/11 Q1018=

  • Evreux (LFOE)

    Taf: TAF LFOE 240200Z 2403/2503 22015G25KT 9999 OVC009 TEMPO 2403/2408 3000 -DZRA OVC003 BECMG 2408/2411 21020G35KT BKN020 BECMG 2421/2424 24012KT TEMPO 2417/2503 3000 RA BKN009=

    Metar: METAR LFOE 240500Z AUTO 19014KT 9999 BKN009 OVC013 12/11 Q1019=

  • Erfurt/Bindersleben (EDDE)

    Taf: TAF EDDE 240500Z 2406/2506 22015KT 9999 BKN025 PROB30 TEMPO 2406/2409 BKN013 PROB30 TEMPO 2406/2506 22015G25KT=

    Metar: METAR EDDE 240520Z 22014KT 9999 SCT016 BKN021 07/05 Q1020 R88/2/0095 TEMPO 22015G25KT=